sensor_id;sensor_type;location;lat;lon;timestamp;temperature;humidity
61641;HTU21D;62201;49.966;8.342;2023-07-20T00:00:24;19.97;64.24
61641;HTU21D;62201;49.966;8.342;2023-07-20T00:02:50;19.92;64.60
61641;HTU21D;62201;49.966;8.342;2023-07-20T00:05:16;19.88;65.31
61641;HTU21D;62201;49.966;8.342;2023-07-20T00:07:47;19.84;66.14
61641;HTU21D;62201;49.966;8.342;2023-07-20T00:10:12;19.83;66.11
61641;HTU21D;62201;49.966;8.342;2023-07-20T00:12:38;19.75;66.97
61641;HTU21D;62201;49.966;8.342;2023-07-20T00:15:04;19.72;66.70
61641;HTU21D;62201;49.966;8.342;2023-07-20T00:17:29;19.70;66.83
61641;HTU21D;62201;49.966;8.342;2023-07-20T00:19:55;19.67;66.97
61641;HTU21D;62201;49.966;8.342;2023-07-20T00:22:20;19.63;67.59
61641;HTU21D;62201;49.966;8.342;2023-07-20T00:24:46;19.57;68.60
61641;HTU21D;62201;49.966;8.342;2023-07-20T00:27:11;19.53;68.40
61641;HTU21D;62201;49.966;8.342;2023-07-20T00:29:37;19.47;69.00
61641;HTU21D;62201;49.966;8.342;2023-07-20T00:32:02;19.45;69.29
61641;HTU21D;62201;49.966;8.342;2023-07-20T00:34:30;19.42;69.25
61641;HTU21D;62201;49.966;8.342;2023-07-20T00:36:56;19.35;69.35
61641;HTU21D;62201;49.966;8.342;2023-07-20T00:39:21;19.28;70.42
61641;HTU21D;62201;49.966;8.342;2023-07-20T00:41:47;19.28;70.26
61641;HTU21D;62201;49.966;8.342;2023-07-20T00:44:12;19.24;70.32
61641;HTU21D;62201;49.966;8.342;2023-07-20T00:46:37;19.21;72.00
61641;HTU21D;62201;49.966;8.342;2023-07-20T00:49:03;19.16;71.60
61641;HTU21D;62201;49.966;8.342;2023-07-20T00:51:29;19.15;71.77
61641;HTU21D;62201;49.966;8.342;2023-07-20T00:53:55;19.13;72.41
61641;HTU21D;62201;49.966;8.342;2023-07-20T00:56:21;19.11;72.05
61641;HTU21D;62201;49.966;8.342;2023-07-20T00:58:47;19.08;72.09
61641;HTU21D;62201;49.966;8.342;2023-07-20T01:01:12;19.01;71.97
61641;HTU21D;62201;49.966;8.342;2023-07-20T01:03:38;18.97;73.09
61641;HTU21D;62201;49.966;8.342;2023-07-20T01:06:14;18.94;73.12
61641;HTU21D;62201;49.966;8.342;2023-07-20T01:14:06;18.68;76.08
61641;HTU21D;62201;49.966;8.342;2023-07-20T01:16:33;18.59;76.71
61641;HTU21D;62201;49.966;8.342;2023-07-20T01:18:58;18.52;77.56
61641;HTU21D;62201;49.966;8.342;2023-07-20T01:21:36;18.47;78.53
61641;HTU21D;62201;49.966;8.342;2023-07-20T01:29:51;18.12;82.16
61641;HTU21D;62201;49.966;8.342;2023-07-20T01:32:23;18.00;81.34
61641;HTU21D;62201;49.966;8.342;2023-07-20T01:34:52;17.94;82.01
61641;HTU21D;62201;49.966;8.342;2023-07-20T01:37:19;17.87;81.49
61641;HTU21D;62201;49.966;8.342;2023-07-20T01:39:45;17.79;82.29
61641;HTU21D;62201;49.966;8.342;2023-07-20T01:42:11;17.78;82.27
61641;HTU21D;62201;49.966;8.342;2023-07-20T01:44:38;17.76;82.42
61641;HTU21D;62201;49.966;8.342;2023-07-20T01:47:03;17.69;83.81
61641;HTU21D;62201;49.966;8.342;2023-07-20T01:49:29;17.64;84.26
61641;HTU21D;62201;49.966;8.342;2023-07-20T01:51:54;17.55;85.29
61641;HTU21D;62201;49.966;8.342;2023-07-20T01:54:20;17.45;86.39
61641;HTU21D;62201;49.966;8.342;2023-07-20T01:56:46;17.36;87.17
61641;HTU21D;62201;49.966;8.342;2023-07-20T01:59:11;17.30;88.95
61641;HTU21D;62201;49.966;8.342;2023-07-20T02:01:37;17.22;88.81
61641;HTU21D;62201;49.966;8.342;2023-07-20T02:04:02;17.17;89.53
61641;HTU21D;62201;49.966;8.342;2023-07-20T02:06:28;17.11;88.92
61641;HTU21D;62201;49.966;8.342;2023-07-20T02:08:53;17.08;89.59
61641;HTU21D;62201;49.966;8.342;2023-07-20T02:11:19;17.05;90.23
61641;HTU21D;62201;49.966;8.342;2023-07-20T02:13:44;17.07;89.13
61641;HTU21D;62201;49.966;8.342;2023-07-20T02:16:10;17.04;89.09
61641;HTU21D;62201;49.966;8.342;2023-07-20T02:18:36;17.00;89.31
61641;HTU21D;62201;49.966;8.342;2023-07-20T02:21:02;16.96;88.81
61641;HTU21D;62201;49.966;8.342;2023-07-20T02:23:27;16.94;88.88
61641;HTU21D;62201;49.966;8.342;2023-07-20T02:25:52;16.92;89.21
61641;HTU21D;62201;49.966;8.342;2023-07-20T02:28:18;16.93;89.22
61641;HTU21D;62201;49.966;8.342;2023-07-20T02:30:43;16.92;89.83
61641;HTU21D;62201;49.966;8.342;2023-07-20T02:33:09;16.91;90.21
61641;HTU21D;62201;49.966;8.342;2023-07-20T02:35:34;16.87;91.02
61641;HTU21D;62201;49.966;8.342;2023-07-20T02:38:00;16.89;91.78
61641;HTU21D;62201;49.966;8.342;2023-07-20T02:40:25;16.87;91.42
61641;HTU21D;62201;49.966;8.342;2023-07-20T02:42:50;16.86;91.76
61641;HTU21D;62201;49.966;8.342;2023-07-20T02:45:16;16.84;92.04
61641;HTU21D;62201;49.966;8.342;2023-07-20T02:47:41;16.80;91.34
61641;HTU21D;62201;49.966;8.342;2023-07-20T02:50:08;16.78;91.13
61641;HTU21D;62201;49.966;8.342;2023-07-20T02:52:33;16.75;92.19
61641;HTU21D;62201;49.966;8.342;2023-07-20T02:54:58;16.72;92.55
61641;HTU21D;62201;49.966;8.342;2023-07-20T02:57:24;16.66;92.55
61641;HTU21D;62201;49.966;8.342;2023-07-20T02:59:49;16.59;93.33
61641;HTU21D;62201;49.966;8.342;2023-07-20T03:02:15;16.56;93.59
61641;HTU21D;62201;49.966;8.342;2023-07-20T03:04:40;16.49;93.77
61641;HTU21D;62201;49.966;8.342;2023-07-20T03:07:06;16.42;94.99
61641;HTU21D;62201;49.966;8.342;2023-07-20T03:09:33;16.39;94.98
61641;HTU21D;62201;49.966;8.342;2023-07-20T03:11:58;16.37;96.29
61641;HTU21D;62201;49.966;8.342;2023-07-20T03:14:24;16.36;96.90
61641;HTU21D;62201;49.966;8.342;2023-07-20T03:16:49;16.36;97.36
61641;HTU21D;62201;49.966;8.342;2023-07-20T03:19:15;16.31;97.25
61641;HTU21D;62201;49.966;8.342;2023-07-20T03:21:40;16.28;99.55
61641;HTU21D;62201;49.966;8.342;2023-07-20T03:24:07;16.21;98.31
61641;HTU21D;62201;49.966;8.342;2023-07-20T03:26:34;16.18;99.31
61641;HTU21D;62201;49.966;8.342;2023-07-20T03:29:00;16.08;101.25
61641;HTU21D;62201;49.966;8.342;2023-07-20T03:31:25;15.98;102.89
61641;HTU21D;62201;49.966;8.342;2023-07-20T03:33:51;15.85;103.45
61641;HTU21D;62201;49.966;8.342;2023-07-20T03:36:17;15.74;104.35
61641;HTU21D;62201;49.966;8.342;2023-07-20T03:38:42;15.69;104.93
61641;HTU21D;62201;49.966;8.342;2023-07-20T03:41:07;15.65;105.33
61641;HTU21D;62201;49.966;8.342;2023-07-20T03:43:34;15.67;104.41
61641;HTU21D;62201;49.966;8.342;2023-07-20T03:45:59;15.68;104.46
61641;HTU21D;62201;49.966;8.342;2023-07-20T03:48:25;15.72;104.99
61641;HTU21D;62201;49.966;8.342;2023-07-20T03:50:52;15.78;104.34
61641;HTU21D;62201;49.966;8.342;2023-07-20T03:53:18;15.81;104.92
61641;HTU21D;62201;49.966;8.342;2023-07-20T03:55:48;15.91;105.81
61641;HTU21D;62201;49.966;8.342;2023-07-20T03:58:14;15.93;104.12
61641;HTU21D;62201;49.966;8.342;2023-07-20T04:00:39;15.96;103.74
61641;HTU21D;62201;49.966;8.342;2023-07-20T04:03:06;15.93;103.66
61641;HTU21D;62201;49.966;8.342;2023-07-20T04:05:31;15.91;103.65
61641;HTU21D;62201;49.966;8.342;2023-07-20T04:07:56;15.89;103.62
61641;HTU21D;62201;49.966;8.342;2023-07-20T04:10:22;15.85;103.98
61641;HTU21D;62201;49.966;8.342;2023-07-20T04:12:47;15.83;103.93
61641;HTU21D;62201;49.966;8.342;2023-07-20T04:15:13;15.83;104.29
61641;HTU21D;62201;49.966;8.342;2023-07-20T04:17:39;15.86;104.13
61641;HTU21D;62201;49.966;8.342;2023-07-20T04:20:06;15.91;102.82
61641;HTU21D;62201;49.966;8.342;2023-07-20T04:22:32;15.93;102.76
61641;HTU21D;62201;49.966;8.342;2023-07-20T04:24:57;15.95;102.81
61641;HTU21D;62201;49.966;8.342;2023-07-20T04:27:23;15.96;103.09
61641;HTU21D;62201;49.966;8.342;2023-07-20T04:29:48;15.95;103.60
61641;HTU21D;62201;49.966;8.342;2023-07-20T04:32:13;15.96;103.57
61641;HTU21D;62201;49.966;8.342;2023-07-20T04:34:39;15.98;103.80
61641;HTU21D;62201;49.966;8.342;2023-07-20T04:37:04;16.03;102.67
61641;HTU21D;62201;49.966;8.342;2023-07-20T04:39:30;16.13;102.01
61641;HTU21D;62201;49.966;8.342;2023-07-20T04:41:56;16.19;101.73
61641;HTU21D;62201;49.966;8.342;2023-07-20T04:44:21;16.26;101.56
61641;HTU21D;62201;49.966;8.342;2023-07-20T04:46:50;16.32;101.51
61641;HTU21D;62201;49.966;8.342;2023-07-20T04:49:15;16.37;100.64
61641;HTU21D;62201;49.966;8.342;2023-07-20T04:51:40;16.50;99.79
61641;HTU21D;62201;49.966;8.342;2023-07-20T04:54:06;16.59;99.13
61641;HTU21D;62201;49.966;8.342;2023-07-20T04:56:31;16.67;98.60
61641;HTU21D;62201;49.966;8.342;2023-07-20T04:58:56;16.79;97.78
61641;HTU21D;62201;49.966;8.342;2023-07-20T05:01:23;16.87;97.22
61641;HTU21D;62201;49.966;8.342;2023-07-20T05:03:48;17.00;96.63
61641;HTU21D;62201;49.966;8.342;2023-07-20T05:06:14;17.09;95.31
61641;HTU21D;62201;49.966;8.342;2023-07-20T05:08:39;17.17;95.24
61641;HTU21D;62201;49.966;8.342;2023-07-20T05:11:05;17.31;94.66
61641;HTU21D;62201;49.966;8.342;2023-07-20T05:13:30;17.41;94.01
61641;HTU21D;62201;49.966;8.342;2023-07-20T05:15:56;17.50;93.51
61641;HTU21D;62201;49.966;8.342;2023-07-20T05:18:23;17.59;92.44
61641;HTU21D;62201;49.966;8.342;2023-07-20T05:20:49;17.70;92.46
61641;HTU21D;62201;49.966;8.342;2023-07-20T05:23:15;17.81;91.92
61641;HTU21D;62201;49.966;8.342;2023-07-20T05:25:41;17.88;90.95
61641;HTU21D;62201;49.966;8.342;2023-07-20T05:28:06;17.95;90.46
61641;HTU21D;62201;49.966;8.342;2023-07-20T05:30:32;18.00;89.53
61641;HTU21D;62201;49.966;8.342;2023-07-20T05:32:57;18.13;89.26
61641;HTU21D;62201;49.966;8.342;2023-07-20T05:35:22;18.22;88.78
61641;HTU21D;62201;49.966;8.342;2023-07-20T05:37:48;18.27;88.22
61641;HTU21D;62201;49.966;8.342;2023-07-20T05:40:14;18.37;87.45
61641;HTU21D;62201;49.966;8.342;2023-07-20T05:42:44;18.44;86.73
61641;HTU21D;62201;49.966;8.342;2023-07-20T05:45:09;18.53;86.03
61641;HTU21D;62201;49.966;8.342;2023-07-20T05:47:35;18.63;84.68
61641;HTU21D;62201;49.966;8.342;2023-07-20T05:50:00;18.71;85.08
61641;HTU21D;62201;49.966;8.342;2023-07-20T05:52:26;18.81;83.71
61641;HTU21D;62201;49.966;8.342;2023-07-20T05:54:51;18.84;83.98
61641;HTU21D;62201;49.966;8.342;2023-07-20T05:57:16;18.89;83.95
61641;HTU21D;62201;49.966;8.342;2023-07-20T05:59:42;18.97;80.78
61641;HTU21D;62201;49.966;8.342;2023-07-20T06:02:10;19.20;80.71
61641;HTU21D;62201;49.966;8.342;2023-07-20T06:04:35;19.28;81.17
61641;HTU21D;62201;49.966;8.342;2023-07-20T06:07:01;19.32;79.85
61641;HTU21D;62201;49.966;8.342;2023-07-20T06:09:26;19.47;77.78
61641;HTU21D;62201;49.966;8.342;2023-07-20T06:11:52;19.57;77.37
61641;HTU21D;62201;49.966;8.342;2023-07-20T06:14:18;19.71;76.76
61641;HTU21D;62201;49.966;8.342;2023-07-20T06:16:43;19.70;74.55
61641;HTU21D;62201;49.966;8.342;2023-07-20T06:19:09;19.63;75.96
61641;HTU21D;62201;49.966;8.342;2023-07-20T06:21:36;19.68;75.11
61641;HTU21D;62201;49.966;8.342;2023-07-20T06:24:01;19.70;74.03
61641;HTU21D;62201;49.966;8.342;2023-07-20T06:26:27;19.75;74.10
61641;HTU21D;62201;49.966;8.342;2023-07-20T06:28:53;19.76;74.56
61641;HTU21D;62201;49.966;8.342;2023-07-20T06:31:19;19.89;73.83
61641;HTU21D;62201;49.966;8.342;2023-07-20T06:33:44;19.91;73.09
61641;HTU21D;62201;49.966;8.342;2023-07-20T06:36:09;19.94;73.47
61641;HTU21D;62201;49.966;8.342;2023-07-20T06:38:35;19.96;72.87
61641;HTU21D;62201;49.966;8.342;2023-07-20T06:41:01;20.11;72.96
61641;HTU21D;62201;49.966;8.342;2023-07-20T06:43:26;20.30;71.97
61641;HTU21D;62201;49.966;8.342;2023-07-20T06:45:52;20.55;69.41
61641;HTU21D;62201;49.966;8.342;2023-07-20T06:48:21;20.37;68.72
61641;HTU21D;62201;49.966;8.342;2023-07-20T06:50:47;20.47;69.66
61641;HTU21D;62201;49.966;8.342;2023-07-20T06:53:13;20.62;69.34
61641;HTU21D;62201;49.966;8.342;2023-07-20T06:55:38;20.69;68.73
61641;HTU21D;62201;49.966;8.342;2023-07-20T06:58:04;20.73;68.37
61641;HTU21D;62201;49.966;8.342;2023-07-20T07:00:30;20.64;68.96
61641;HTU21D;62201;49.966;8.342;2023-07-20T07:02:55;20.79;68.01
61641;HTU21D;62201;49.966;8.342;2023-07-20T07:05:20;20.90;67.64
61641;HTU21D;62201;49.966;8.342;2023-07-20T07:07:46;20.75;67.98
61641;HTU21D;62201;49.966;8.342;2023-07-20T07:10:12;20.71;67.77
61641;HTU21D;62201;49.966;8.342;2023-07-20T07:12:37;20.80;67.46
61641;HTU21D;62201;49.966;8.342;2023-07-20T07:15:04;20.69;67.58
61641;HTU21D;62201;49.966;8.342;2023-07-20T07:17:31;20.74;67.41
61641;HTU21D;62201;49.966;8.342;2023-07-20T07:19:58;20.76;67.25
61641;HTU21D;62201;49.966;8.342;2023-07-20T07:22:23;21.02;65.86
61641;HTU21D;62201;49.966;8.342;2023-07-20T07:24:48;21.20;65.13
61641;HTU21D;62201;49.966;8.342;2023-07-20T07:27:14;21.38;64.21
61641;HTU21D;62201;49.966;8.342;2023-07-20T07:29:42;21.38;63.69
61641;HTU21D;62201;49.966;8.342;2023-07-20T07:32:11;21.38;62.94
61641;HTU21D;62201;49.966;8.342;2023-07-20T07:34:37;21.38;62.85
61641;HTU21D;62201;49.966;8.342;2023-07-20T07:37:03;21.52;62.78
61641;HTU21D;62201;49.966;8.342;2023-07-20T07:39:29;21.58;62.05
61641;HTU21D;62201;49.966;8.342;2023-07-20T07:41:55;21.72;60.91
61641;HTU21D;62201;49.966;8.342;2023-07-20T07:44:21;22.10;60.20
61641;HTU21D;62201;49.966;8.342;2023-07-20T07:46:46;22.36;59.58
61641;HTU21D;62201;49.966;8.342;2023-07-20T07:49:12;22.67;58.45
61641;HTU21D;62201;49.966;8.342;2023-07-20T07:51:37;22.47;56.86
61641;HTU21D;62201;49.966;8.342;2023-07-20T07:54:02;22.06;59.12
61641;HTU21D;62201;49.966;8.342;2023-07-20T07:56:28;21.92;59.64
61641;HTU21D;62201;49.966;8.342;2023-07-20T07:58:53;21.79;60.33
61641;HTU21D;62201;49.966;8.342;2023-07-20T08:01:19;21.78;60.41
61641;HTU21D;62201;49.966;8.342;2023-07-20T08:03:45;21.69;60.39
61641;HTU21D;62201;49.966;8.342;2023-07-20T08:06:15;21.64;60.39
61641;HTU21D;62201;49.966;8.342;2023-07-20T08:08:41;21.73;59.49
61641;HTU21D;62201;49.966;8.342;2023-07-20T08:11:07;21.72;59.83
61641;HTU21D;62201;49.966;8.342;2023-07-20T08:13:33;21.80;59.91
61641;HTU21D;62201;49.966;8.342;2023-07-20T08:15:58;22.03;59.00
61641;HTU21D;62201;49.966;8.342;2023-07-20T08:18:24;22.38;57.90
61641;HTU21D;62201;49.966;8.342;2023-07-20T08:20:49;22.73;56.30
61641;HTU21D;62201;49.966;8.342;2023-07-20T08:23:15;22.80;56.02
61641;HTU21D;62201;49.966;8.342;2023-07-20T08:25:41;23.02;55.50
61641;HTU21D;62201;49.966;8.342;2023-07-20T08:28:14;23.12;55.03
61641;HTU21D;62201;49.966;8.342;2023-07-20T08:30:41;23.69;53.94
61641;HTU21D;62201;49.966;8.342;2023-07-20T08:33:07;23.42;53.71
61641;HTU21D;62201;49.966;8.342;2023-07-20T08:35:33;23.23;54.23
61641;HTU21D;62201;49.966;8.342;2023-07-20T08:37:58;23.27;53.84
61641;HTU21D;62201;49.966;8.342;2023-07-20T08:40:24;23.25;53.86
61641;HTU21D;62201;49.966;8.342;2023-07-20T08:42:50;23.16;53.75
61641;HTU21D;62201;49.966;8.342;2023-07-20T08:45:16;23.28;53.49
61641;HTU21D;62201;49.966;8.342;2023-07-20T08:47:43;24.11;50.53
61641;HTU21D;62201;49.966;8.342;2023-07-20T08:50:11;24.38;51.21
61641;HTU21D;62201;49.966;8.342;2023-07-20T08:52:37;25.63;46.90
61641;HTU21D;62201;49.966;8.342;2023-07-20T08:55:03;25.74;47.26
61641;HTU21D;62201;49.966;8.342;2023-07-20T08:57:33;25.71;45.73
61641;HTU21D;62201;49.966;8.342;2023-07-20T09:00:01;25.90;44.18
61641;HTU21D;62201;49.966;8.342;2023-07-20T09:02:30;25.97;45.22
61641;HTU21D;62201;49.966;8.342;2023-07-20T09:04:59;25.68;45.44
61641;HTU21D;62201;49.966;8.342;2023-07-20T09:07:25;25.31;45.09
61641;HTU21D;62201;49.966;8.342;2023-07-20T09:09:50;24.75;45.87
61641;HTU21D;62201;49.966;8.342;2023-07-20T09:12:16;24.28;47.23
61641;HTU21D;62201;49.966;8.342;2023-07-20T09:14:44;24.18;47.08
61641;HTU21D;62201;49.966;8.342;2023-07-20T09:17:13;24.24;47.10
61641;HTU21D;62201;49.966;8.342;2023-07-20T09:19:45;24.41;46.86
61641;HTU21D;62201;49.966;8.342;2023-07-20T09:22:11;25.18;45.63
61641;HTU21D;62201;49.966;8.342;2023-07-20T09:24:36;26.34;42.39
61641;HTU21D;62201;49.966;8.342;2023-07-20T09:27:02;27.37;40.04
61641;HTU21D;62201;49.966;8.342;2023-07-20T09:29:30;27.56;39.53
61641;HTU21D;62201;49.966;8.342;2023-07-20T09:32:03;28.34;37.51
61641;HTU21D;62201;49.966;8.342;2023-07-20T09:34:32;28.16;37.13
61641;HTU21D;62201;49.966;8.342;2023-07-20T09:37:00;27.35;38.90
61641;HTU21D;62201;49.966;8.342;2023-07-20T09:39:26;26.89;39.91
61641;HTU21D;62201;49.966;8.342;2023-07-20T09:41:51;26.77;40.18
61641;HTU21D;62201;49.966;8.342;2023-07-20T09:44:17;26.18;41.81
61641;HTU21D;62201;49.966;8.342;2023-07-20T09:46:49;26.53;41.10
61641;HTU21D;62201;49.966;8.342;2023-07-20T09:49:17;27.70;38.59
61641;HTU21D;62201;49.966;8.342;2023-07-20T09:51:44;27.08;39.47
61641;HTU21D;62201;49.966;8.342;2023-07-20T09:54:11;26.27;41.06
61641;HTU21D;62201;49.966;8.342;2023-07-20T09:56:38;25.67;41.65
61641;HTU21D;62201;49.966;8.342;2023-07-20T09:59:04;25.36;42.39
61641;HTU21D;62201;49.966;8.342;2023-07-20T10:01:32;24.92;44.29
61641;HTU21D;62201;49.966;8.342;2023-07-20T10:04:02;24.33;45.89
61641;HTU21D;62201;49.966;8.342;2023-07-20T10:06:29;23.99;47.20
61641;HTU21D;62201;49.966;8.342;2023-07-20T10:09:00;23.56;47.98
61641;HTU21D;62201;49.966;8.342;2023-07-20T10:11:30;23.29;48.93
61641;HTU21D;62201;49.966;8.342;2023-07-20T10:13:58;23.28;49.08
61641;HTU21D;62201;49.966;8.342;2023-07-20T10:16:40;23.23;49.81
61641;HTU21D;62201;49.966;8.342;2023-07-20T10:19:47;23.14;50.59
61641;HTU21D;62201;49.966;8.342;2023-07-20T10:22:22;23.12;50.05
61641;HTU21D;62201;49.966;8.342;2023-07-20T10:24:50;23.07;51.40
61641;HTU21D;62201;49.966;8.342;2023-07-20T10:27:21;23.11;51.21
61641;HTU21D;62201;49.966;8.342;2023-07-20T10:29:48;23.39;50.92
61641;HTU21D;62201;49.966;8.342;2023-07-20T10:32:14;23.97;49.60
61641;HTU21D;62201;49.966;8.342;2023-07-20T10:34:39;24.26;48.83
61641;HTU21D;62201;49.966;8.342;2023-07-20T10:37:05;24.24;48.50
61641;HTU21D;62201;49.966;8.342;2023-07-20T10:39:32;24.20;48.12
61641;HTU21D;62201;49.966;8.342;2023-07-20T10:44:27;24.11;47.99
61641;HTU21D;62201;49.966;8.342;2023-07-20T10:47:02;24.28;47.38
61641;HTU21D;62201;49.966;8.342;2023-07-20T10:49:28;24.25;47.47
61641;HTU21D;62201;49.966;8.342;2023-07-20T10:52:04;24.21;47.54
61641;HTU21D;62201;49.966;8.342;2023-07-20T10:56:56;24.23;47.40
61641;HTU21D;62201;49.966;8.342;2023-07-20T11:01:55;24.41;47.12
61641;HTU21D;62201;49.966;8.342;2023-07-20T11:04:38;24.21;47.24
61641;HTU21D;62201;49.966;8.342;2023-07-20T11:07:04;24.26;47.48
61641;HTU21D;62201;49.966;8.342;2023-07-20T11:09:34;24.42;46.95
61641;HTU21D;62201;49.966;8.342;2023-07-20T11:12:10;24.57;45.90
61641;HTU21D;62201;49.966;8.342;2023-07-20T11:14:43;24.97;45.90
61641;HTU21D;62201;49.966;8.342;2023-07-20T11:17:13;25.61;44.45
61641;HTU21D;62201;49.966;8.342;2023-07-20T11:19:39;26.60;42.06
61641;HTU21D;62201;49.966;8.342;2023-07-20T11:22:08;26.87;40.96
61641;HTU21D;62201;49.966;8.342;2023-07-20T11:24:34;26.85;41.84
61641;HTU21D;62201;49.966;8.342;2023-07-20T11:27:00;26.28;42.21
61641;HTU21D;62201;49.966;8.342;2023-07-20T11:29:26;26.23;42.41
61641;HTU21D;62201;49.966;8.342;2023-07-20T11:31:52;25.87;42.59
61641;HTU21D;62201;49.966;8.342;2023-07-20T11:34:20;25.75;43.17
61641;HTU21D;62201;49.966;8.342;2023-07-20T11:36:49;25.27;43.30
61641;HTU21D;62201;49.966;8.342;2023-07-20T11:39:17;25.01;43.67
61641;HTU21D;62201;49.966;8.342;2023-07-20T11:41:51;24.70;45.06
61641;HTU21D;62201;49.966;8.342;2023-07-20T11:44:18;24.41;46.02
61641;HTU21D;62201;49.966;8.342;2023-07-20T11:46:44;24.30;46.16
61641;HTU21D;62201;49.966;8.342;2023-07-20T11:49:11;24.43;45.90
61641;HTU21D;62201;49.966;8.342;2023-07-20T11:51:36;24.44;46.06
61641;HTU21D;62201;49.966;8.342;2023-07-20T11:54:03;25.17;45.67
61641;HTU21D;62201;49.966;8.342;2023-07-20T11:56:29;26.24;42.77
61641;HTU21D;62201;49.966;8.342;2023-07-20T11:58:57;26.46;41.49
61641;HTU21D;62201;49.966;8.342;2023-07-20T12:01:25;26.08;41.92
61641;HTU21D;62201;49.966;8.342;2023-07-20T12:03:55;26.35;40.62
61641;HTU21D;62201;49.966;8.342;2023-07-20T12:06:23;27.20;39.37
61641;HTU21D;62201;49.966;8.342;2023-07-20T12:08:50;27.66;38.48
61641;HTU21D;62201;49.966;8.342;2023-07-20T12:11:39;27.61;37.77
61641;HTU21D;62201;49.966;8.342;2023-07-20T12:14:07;26.96;39.31
61641;HTU21D;62201;49.966;8.342;2023-07-20T12:16:35;26.91;38.88
61641;HTU21D;62201;49.966;8.342;2023-07-20T12:21:27;26.10;40.62
61641;HTU21D;62201;49.966;8.342;2023-07-20T12:23:52;26.22;40.20
61641;HTU21D;62201;49.966;8.342;2023-07-20T12:26:18;26.19;40.72
61641;HTU21D;62201;49.966;8.342;2023-07-20T12:28:45;26.53;40.46
61641;HTU21D;62201;49.966;8.342;2023-07-20T12:31:10;27.76;37.68
61641;HTU21D;62201;49.966;8.342;2023-07-20T12:33:38;28.00;36.78
61641;HTU21D;62201;49.966;8.342;2023-07-20T12:36:04;28.32;36.34
61641;HTU21D;62201;49.966;8.342;2023-07-20T12:38:30;28.44;35.28
61641;HTU21D;62201;49.966;8.342;2023-07-20T12:40:59;28.85;35.12
61641;HTU21D;62201;49.966;8.342;2023-07-20T12:43:25;29.52;33.67
61641;HTU21D;62201;49.966;8.342;2023-07-20T12:45:51;30.07;32.09
61641;HTU21D;62201;49.966;8.342;2023-07-20T12:48:16;29.58;31.45
61641;HTU21D;62201;49.966;8.342;2023-07-20T12:50:42;28.87;33.20
61641;HTU21D;62201;49.966;8.342;2023-07-20T12:53:07;28.26;33.73
61641;HTU21D;62201;49.966;8.342;2023-07-20T12:55:33;27.71;34.85
61641;HTU21D;62201;49.966;8.342;2023-07-20T12:57:58;26.87;37.11
61641;HTU21D;62201;49.966;8.342;2023-07-20T13:00:24;26.37;37.91
61641;HTU21D;62201;49.966;8.342;2023-07-20T13:02:50;26.01;38.86
61641;HTU21D;62201;49.966;8.342;2023-07-20T13:05:15;25.77;39.20
61641;HTU21D;62201;49.966;8.342;2023-07-20T13:07:41;25.80;39.48
61641;HTU21D;62201;49.966;8.342;2023-07-20T13:10:08;26.18;39.07
61641;HTU21D;62201;49.966;8.342;2023-07-20T13:12:34;27.10;37.42
61641;HTU21D;62201;49.966;8.342;2023-07-20T13:15:02;27.79;36.21
61641;HTU21D;62201;49.966;8.342;2023-07-20T13:17:31;27.61;35.99
61641;HTU21D;62201;49.966;8.342;2023-07-20T13:19:56;28.26;35.15
61641;HTU21D;62201;49.966;8.342;2023-07-20T13:22:22;27.89;35.59
61641;HTU21D;62201;49.966;8.342;2023-07-20T13:24:48;27.91;35.64
61641;HTU21D;62201;49.966;8.342;2023-07-20T13:27:19;27.75;35.69
61641;HTU21D;62201;49.966;8.342;2023-07-20T13:29:45;28.44;34.60
61641;HTU21D;62201;49.966;8.342;2023-07-20T13:32:13;28.73;34.08
61641;HTU21D;62201;49.966;8.342;2023-07-20T13:34:38;29.44;33.08
61641;HTU21D;62201;49.966;8.342;2023-07-20T13:37:04;30.28;30.58
61641;HTU21D;62201;49.966;8.342;2023-07-20T13:39:29;29.30;31.76
61641;HTU21D;62201;49.966;8.342;2023-07-20T13:41:55;28.77;32.75
61641;HTU21D;62201;49.966;8.342;2023-07-20T13:44:21;29.47;31.77
61641;HTU21D;62201;49.966;8.342;2023-07-20T13:46:50;30.00;30.80
61641;HTU21D;62201;49.966;8.342;2023-07-20T13:49:16;30.38;30.43
61641;HTU21D;62201;49.966;8.342;2023-07-20T13:51:42;30.46;29.77
61641;HTU21D;62201;49.966;8.342;2023-07-20T13:54:08;29.89;30.80
61641;HTU21D;62201;49.966;8.342;2023-07-20T13:56:34;29.30;31.99
61641;HTU21D;62201;49.966;8.342;2023-07-20T13:58:59;28.94;31.94
61641;HTU21D;62201;49.966;8.342;2023-07-20T14:01:24;29.54;31.02
61641;HTU21D;62201;49.966;8.342;2023-07-20T14:03:50;28.93;31.11
61641;HTU21D;62201;49.966;8.342;2023-07-20T14:06:16;28.42;32.60
61641;HTU21D;62201;49.966;8.342;2023-07-20T14:08:42;28.43;32.51
61641;HTU21D;62201;49.966;8.342;2023-07-20T14:11:11;28.28;32.48
61641;HTU21D;62201;49.966;8.342;2023-07-20T14:13:37;28.04;32.61
61641;HTU21D;62201;49.966;8.342;2023-07-20T14:16:03;27.76;32.25
61641;HTU21D;62201;49.966;8.342;2023-07-20T14:18:28;27.35;32.67
61641;HTU21D;62201;49.966;8.342;2023-07-20T14:20:53;27.29;32.68
61641;HTU21D;62201;49.966;8.342;2023-07-20T14:23:19;26.94;33.23
61641;HTU21D;62201;49.966;8.342;2023-07-20T14:25:44;26.90;32.86
61641;HTU21D;62201;49.966;8.342;2023-07-20T14:28:10;26.75;33.02
61641;HTU21D;62201;49.966;8.342;2023-07-20T14:30:35;26.52;33.76
61641;HTU21D;62201;49.966;8.342;2023-07-20T14:33:00;26.30;35.01
61641;HTU21D;62201;49.966;8.342;2023-07-20T14:35:26;26.02;35.64
61641;HTU21D;62201;49.966;8.342;2023-07-20T14:37:51;25.80;35.85
61641;HTU21D;62201;49.966;8.342;2023-07-20T14:40:17;25.62;36.11
61641;HTU21D;62201;49.966;8.342;2023-07-20T14:42:43;25.54;36.30
61641;HTU21D;62201;49.966;8.342;2023-07-20T14:45:09;25.39;36.46
61641;HTU21D;62201;49.966;8.342;2023-07-20T14:47:34;25.36;36.49
61641;HTU21D;62201;49.966;8.342;2023-07-20T14:50:03;25.28;37.24
61641;HTU21D;62201;49.966;8.342;2023-07-20T14:52:29;25.27;37.11
61641;HTU21D;62201;49.966;8.342;2023-07-20T14:54:55;25.29;37.40
61641;HTU21D;62201;49.966;8.342;2023-07-20T14:57:20;25.34;37.66
61641;HTU21D;62201;49.966;8.342;2023-07-20T14:59:51;25.25;38.22
61641;HTU21D;62201;49.966;8.342;2023-07-20T15:02:18;25.29;38.33
61641;HTU21D;62201;49.966;8.342;2023-07-20T15:04:47;25.30;38.54
61641;HTU21D;62201;49.966;8.342;2023-07-20T15:07:15;25.39;38.43
61641;HTU21D;62201;49.966;8.342;2023-07-20T15:09:40;25.31;38.39
61641;HTU21D;62201;49.966;8.342;2023-07-20T15:12:06;25.42;38.24
61641;HTU21D;62201;49.966;8.342;2023-07-20T15:14:32;25.48;38.00
61641;HTU21D;62201;49.966;8.342;2023-07-20T15:16:57;25.75;37.64
61641;HTU21D;62201;49.966;8.342;2023-07-20T15:19:23;26.66;35.79
61641;HTU21D;62201;49.966;8.342;2023-07-20T15:21:48;28.18;33.73
61641;HTU21D;62201;49.966;8.342;2023-07-20T15:24:13;28.54;32.23
61641;HTU21D;62201;49.966;8.342;2023-07-20T15:26:39;28.35;31.95
61641;HTU21D;62201;49.966;8.342;2023-07-20T15:29:06;28.50;31.65
61641;HTU21D;62201;49.966;8.342;2023-07-20T15:31:31;28.56;31.35